sensor_id;sensor_type;location;lat;lon;timestamp;temperature;humidity
8475;DHT22;4274;52.012;8.448;2022-10-30T00:01:21;15.50;99.90
8475;DHT22;4274;52.012;8.448;2022-10-30T00:03:47;15.40;99.90
8475;DHT22;4274;52.012;8.448;2022-10-30T00:06:12;15.40;99.90
8475;DHT22;4274;52.012;8.448;2022-10-30T00:08:38;15.40;99.90
8475;DHT22;4274;52.012;8.448;2022-10-30T00:11:05;15.30;99.90
8475;DHT22;4274;52.012;8.448;2022-10-30T00:13:30;15.30;99.90
8475;DHT22;4274;52.012;8.448;2022-10-30T00:15:56;15.30;99.90
8475;DHT22;4274;52.012;8.448;2022-10-30T00:18:21;15.30;99.90
8475;DHT22;4274;52.012;8.448;2022-10-30T00:20:47;15.30;99.90
8475;DHT22;4274;52.012;8.448;2022-10-30T00:23:13;15.30;99.90
8475;DHT22;4274;52.012;8.448;2022-10-30T00:25:39;15.40;99.90
8475;DHT22;4274;52.012;8.448;2022-10-30T00:28:06;15.50;99.90
8475;DHT22;4274;52.012;8.448;2022-10-30T00:30:32;15.50;99.90
8475;DHT22;4274;52.012;8.448;2022-10-30T00:32:58;15.60;99.90
8475;DHT22;4274;52.012;8.448;2022-10-30T00:35:23;15.60;99.90
8475;DHT22;4274;52.012;8.448;2022-10-30T00:37:49;15.60;99.90
8475;DHT22;4274;52.012;8.448;2022-10-30T00:40:15;15.60;99.90
8475;DHT22;4274;52.012;8.448;2022-10-30T00:42:41;15.60;99.90
8475;DHT22;4274;52.012;8.448;2022-10-30T00:45:11;15.60;99.90
8475;DHT22;4274;52.012;8.448;2022-10-30T00:47:50;15.60;99.90
8475;DHT22;4274;52.012;8.448;2022-10-30T00:53:23;15.60;99.90
8475;DHT22;4274;52.012;8.448;2022-10-30T00:55:51;15.60;99.90
8475;DHT22;4274;52.012;8.448;2022-10-30T00:58:20;15.60;99.90
8475;DHT22;4274;52.012;8.448;2022-10-30T01:00:51;15.70;99.90
8475;DHT22;4274;52.012;8.448;2022-10-30T01:03:20;15.70;99.90
8475;DHT22;4274;52.012;8.448;2022-10-30T01:05:49;15.70;99.90
8475;DHT22;4274;52.012;8.448;2022-10-30T01:08:17;15.70;99.90
8475;DHT22;4274;52.012;8.448;2022-10-30T01:10:43;15.70;99.90
8475;DHT22;4274;52.012;8.448;2022-10-30T01:13:09;15.70;99.90
8475;DHT22;4274;52.012;8.448;2022-10-30T01:15:39;15.70;99.90
8475;DHT22;4274;52.012;8.448;2022-10-30T01:18:15;15.60;99.90
8475;DHT22;4274;52.012;8.448;2022-10-30T01:28:58;15.50;99.90
8475;DHT22;4274;52.012;8.448;2022-10-30T01:37:00;15.40;99.90
8475;DHT22;4274;52.012;8.448;2022-10-30T01:39:34;15.40;99.90
8475;DHT22;4274;52.012;8.448;2022-10-30T01:42:10;15.40;99.90
8475;DHT22;4274;52.012;8.448;2022-10-30T01:44:54;15.30;99.90
8475;DHT22;4274;52.012;8.448;2022-10-30T01:58:35;15.10;99.90
8475;DHT22;4274;52.012;8.448;2022-10-30T02:01:04;15.10;99.90
8475;DHT22;4274;52.012;8.448;2022-10-30T02:03:30;15.10;99.90
8475;DHT22;4274;52.012;8.448;2022-10-30T02:05:56;15.10;99.90
8475;DHT22;4274;52.012;8.448;2022-10-30T02:08:21;15.10;99.90
8475;DHT22;4274;52.012;8.448;2022-10-30T02:10:48;15.20;99.90
8475;DHT22;4274;52.012;8.448;2022-10-30T02:13:15;15.10;99.90
8475;DHT22;4274;52.012;8.448;2022-10-30T02:15:42;15.10;99.90
8475;DHT22;4274;52.012;8.448;2022-10-30T02:18:09;15.20;99.90
8475;DHT22;4274;52.012;8.448;2022-10-30T02:20:34;15.20;99.90
8475;DHT22;4274;52.012;8.448;2022-10-30T02:23:00;15.20;99.90
8475;DHT22;4274;52.012;8.448;2022-10-30T02:25:26;15.20;99.90
8475;DHT22;4274;52.012;8.448;2022-10-30T02:27:52;15.20;99.90
8475;DHT22;4274;52.012;8.448;2022-10-30T02:30:17;15.20;99.90
8475;DHT22;4274;52.012;8.448;2022-10-30T02:32:43;15.10;99.90
8475;DHT22;4274;52.012;8.448;2022-10-30T02:35:09;15.10;99.90
8475;DHT22;4274;52.012;8.448;2022-10-30T02:37:34;15.00;99.90
8475;DHT22;4274;52.012;8.448;2022-10-30T02:40:01;15.00;99.90
8475;DHT22;4274;52.012;8.448;2022-10-30T02:42:27;14.90;99.90
8475;DHT22;4274;52.012;8.448;2022-10-30T02:44:53;14.90;99.90
8475;DHT22;4274;52.012;8.448;2022-10-30T02:47:18;14.80;99.90
8475;DHT22;4274;52.012;8.448;2022-10-30T02:49:44;14.80;99.90
8475;DHT22;4274;52.012;8.448;2022-10-30T02:52:09;14.70;99.90
8475;DHT22;4274;52.012;8.448;2022-10-30T02:54:35;14.70;99.90
8475;DHT22;4274;52.012;8.448;2022-10-30T02:57:01;14.70;99.90
8475;DHT22;4274;52.012;8.448;2022-10-30T02:59:28;14.70;99.90
8475;DHT22;4274;52.012;8.448;2022-10-30T03:01:53;14.80;99.90
8475;DHT22;4274;52.012;8.448;2022-10-30T03:04:19;14.80;99.90
8475;DHT22;4274;52.012;8.448;2022-10-30T03:06:45;14.70;99.90
8475;DHT22;4274;52.012;8.448;2022-10-30T03:09:11;14.70;99.90
8475;DHT22;4274;52.012;8.448;2022-10-30T03:11:36;14.80;99.90
8475;DHT22;4274;52.012;8.448;2022-10-30T03:14:02;14.80;99.90
8475;DHT22;4274;52.012;8.448;2022-10-30T03:16:27;14.80;99.90
8475;DHT22;4274;52.012;8.448;2022-10-30T03:18:58;14.70;99.90
8475;DHT22;4274;52.012;8.448;2022-10-30T03:21:25;14.70;99.90
8475;DHT22;4274;52.012;8.448;2022-10-30T03:23:52;14.60;99.90
8475;DHT22;4274;52.012;8.448;2022-10-30T03:26:18;14.60;99.90
8475;DHT22;4274;52.012;8.448;2022-10-30T03:28:44;14.60;99.90
8475;DHT22;4274;52.012;8.448;2022-10-30T03:31:15;14.50;99.90
8475;DHT22;4274;52.012;8.448;2022-10-30T03:33:41;14.50;99.90
8475;DHT22;4274;52.012;8.448;2022-10-30T03:36:09;14.50;99.90
8475;DHT22;4274;52.012;8.448;2022-10-30T03:38:35;14.40;99.90
8475;DHT22;4274;52.012;8.448;2022-10-30T03:41:01;14.40;99.90
8475;DHT22;4274;52.012;8.448;2022-10-30T03:43:26;14.40;99.90
8475;DHT22;4274;52.012;8.448;2022-10-30T03:45:53;14.30;99.90
8475;DHT22;4274;52.012;8.448;2022-10-30T03:48:21;14.30;99.90
8475;DHT22;4274;52.012;8.448;2022-10-30T03:50:47;14.30;99.90
8475;DHT22;4274;52.012;8.448;2022-10-30T03:53:13;14.20;99.90
8475;DHT22;4274;52.012;8.448;2022-10-30T03:55:40;14.20;99.90
8475;DHT22;4274;52.012;8.448;2022-10-30T03:58:06;14.20;99.90
8475;DHT22;4274;52.012;8.448;2022-10-30T04:00:32;14.20;99.90
8475;DHT22;4274;52.012;8.448;2022-10-30T04:02:59;14.20;99.90
8475;DHT22;4274;52.012;8.448;2022-10-30T04:05:25;14.20;99.90
8475;DHT22;4274;52.012;8.448;2022-10-30T04:07:59;14.10;99.90
8475;DHT22;4274;52.012;8.448;2022-10-30T04:10:26;14.20;99.90
8475;DHT22;4274;52.012;8.448;2022-10-30T04:12:52;14.20;99.90
8475;DHT22;4274;52.012;8.448;2022-10-30T04:15:19;14.20;99.90
8475;DHT22;4274;52.012;8.448;2022-10-30T04:17:49;14.20;99.90
8475;DHT22;4274;52.012;8.448;2022-10-30T04:20:16;14.20;99.90
8475;DHT22;4274;52.012;8.448;2022-10-30T04:22:42;14.10;99.90
8475;DHT22;4274;52.012;8.448;2022-10-30T04:25:08;14.20;99.90
8475;DHT22;4274;52.012;8.448;2022-10-30T04:27:41;14.30;99.90
8475;DHT22;4274;52.012;8.448;2022-10-30T04:30:09;14.40;99.90
8475;DHT22;4274;52.012;8.448;2022-10-30T04:32:35;14.40;99.90
8475;DHT22;4274;52.012;8.448;2022-10-30T04:35:01;14.40;99.90
8475;DHT22;4274;52.012;8.448;2022-10-30T04:37:28;14.30;99.90
8475;DHT22;4274;52.012;8.448;2022-10-30T04:39:53;14.30;99.90
8475;DHT22;4274;52.012;8.448;2022-10-30T04:42:19;14.30;99.90
8475;DHT22;4274;52.012;8.448;2022-10-30T04:44:44;14.20;99.90
8475;DHT22;4274;52.012;8.448;2022-10-30T04:47:10;14.10;99.90
8475;DHT22;4274;52.012;8.448;2022-10-30T04:49:35;14.10;99.90
8475;DHT22;4274;52.012;8.448;2022-10-30T04:52:01;14.00;99.90
8475;DHT22;4274;52.012;8.448;2022-10-30T04:54:26;14.00;99.90
8475;DHT22;4274;52.012;8.448;2022-10-30T04:56:53;13.90;99.90
8475;DHT22;4274;52.012;8.448;2022-10-30T04:59:18;13.80;99.90
8475;DHT22;4274;52.012;8.448;2022-10-30T05:01:44;13.80;99.90
8475;DHT22;4274;52.012;8.448;2022-10-30T05:04:09;13.70;99.90
8475;DHT22;4274;52.012;8.448;2022-10-30T05:06:35;13.60;99.90
8475;DHT22;4274;52.012;8.448;2022-10-30T05:09:00;13.50;99.90
8475;DHT22;4274;52.012;8.448;2022-10-30T05:11:26;13.50;99.90
8475;DHT22;4274;52.012;8.448;2022-10-30T05:13:52;13.40;99.90
8475;DHT22;4274;52.012;8.448;2022-10-30T05:16:17;13.30;99.90
8475;DHT22;4274;52.012;8.448;2022-10-30T05:18:43;13.30;99.90
8475;DHT22;4274;52.012;8.448;2022-10-30T05:21:08;13.20;99.90
8475;DHT22;4274;52.012;8.448;2022-10-30T05:23:34;13.10;99.90
8475;DHT22;4274;52.012;8.448;2022-10-30T05:26:00;13.10;99.90
8475;DHT22;4274;52.012;8.448;2022-10-30T05:28:25;13.00;99.90
8475;DHT22;4274;52.012;8.448;2022-10-30T05:30:52;13.00;99.90
8475;DHT22;4274;52.012;8.448;2022-10-30T05:33:18;12.90;99.90
8475;DHT22;4274;52.012;8.448;2022-10-30T05:35:44;12.80;99.90
8475;DHT22;4274;52.012;8.448;2022-10-30T05:38:10;12.70;99.90
8475;DHT22;4274;52.012;8.448;2022-10-30T05:40:36;12.80;99.90
8475;DHT22;4274;52.012;8.448;2022-10-30T05:43:02;12.70;99.90
8475;DHT22;4274;52.012;8.448;2022-10-30T05:45:28;12.70;99.90
8475;DHT22;4274;52.012;8.448;2022-10-30T05:48:03;12.60;99.90
8475;DHT22;4274;52.012;8.448;2022-10-30T05:50:29;12.60;99.90
8475;DHT22;4274;52.012;8.448;2022-10-30T05:53:03;12.60;99.90
8475;DHT22;4274;52.012;8.448;2022-10-30T05:55:29;12.60;99.90
8475;DHT22;4274;52.012;8.448;2022-10-30T06:00:21;12.50;99.90
8475;DHT22;4274;52.012;8.448;2022-10-30T06:02:47;12.40;99.90
8475;DHT22;4274;52.012;8.448;2022-10-30T06:05:12;12.40;99.90
8475;DHT22;4274;52.012;8.448;2022-10-30T06:07:38;12.30;99.90
8475;DHT22;4274;52.012;8.448;2022-10-30T06:10:04;12.30;99.90
8475;DHT22;4274;52.012;8.448;2022-10-30T06:12:30;12.20;99.90
8475;DHT22;4274;52.012;8.448;2022-10-30T06:14:55;12.20;99.90
8475;DHT22;4274;52.012;8.448;2022-10-30T06:17:21;12.20;99.90
8475;DHT22;4274;52.012;8.448;2022-10-30T06:19:46;12.20;99.90
8475;DHT22;4274;52.012;8.448;2022-10-30T06:22:12;12.10;99.90
8475;DHT22;4274;52.012;8.448;2022-10-30T06:24:37;12.10;99.90
8475;DHT22;4274;52.012;8.448;2022-10-30T06:27:03;12.10;99.90
8475;DHT22;4274;52.012;8.448;2022-10-30T06:29:28;12.10;99.90
8475;DHT22;4274;52.012;8.448;2022-10-30T06:31:54;12.10;99.90
8475;DHT22;4274;52.012;8.448;2022-10-30T06:34:19;12.10;99.90
8475;DHT22;4274;52.012;8.448;2022-10-30T06:36:45;12.10;99.90
8475;DHT22;4274;52.012;8.448;2022-10-30T06:39:10;12.20;99.90
8475;DHT22;4274;52.012;8.448;2022-10-30T06:41:36;12.20;99.90
8475;DHT22;4274;52.012;8.448;2022-10-30T06:44:02;12.20;99.90
8475;DHT22;4274;52.012;8.448;2022-10-30T06:46:28;12.20;99.90
8475;DHT22;4274;52.012;8.448;2022-10-30T06:48:53;12.20;99.90
8475;DHT22;4274;52.012;8.448;2022-10-30T06:51:19;12.20;99.90
8475;DHT22;4274;52.012;8.448;2022-10-30T06:53:45;12.30;99.90
8475;DHT22;4274;52.012;8.448;2022-10-30T06:56:10;12.30;99.90
8475;DHT22;4274;52.012;8.448;2022-10-30T06:58:36;12.40;99.90
8475;DHT22;4274;52.012;8.448;2022-10-30T07:01:06;12.40;99.90
8475;DHT22;4274;52.012;8.448;2022-10-30T07:03:32;12.50;99.90
8475;DHT22;4274;52.012;8.448;2022-10-30T07:05:58;12.50;99.90
8475;DHT22;4274;52.012;8.448;2022-10-30T07:08:24;12.70;99.90
8475;DHT22;4274;52.012;8.448;2022-10-30T07:10:49;12.70;99.90
8475;DHT22;4274;52.012;8.448;2022-10-30T07:13:15;12.80;99.90
8475;DHT22;4274;52.012;8.448;2022-10-30T07:15:41;12.90;99.90
8475;DHT22;4274;52.012;8.448;2022-10-30T07:18:08;13.00;99.90
8475;DHT22;4274;52.012;8.448;2022-10-30T07:20:34;13.00;99.90
8475;DHT22;4274;52.012;8.448;2022-10-30T07:23:00;13.00;99.90
8475;DHT22;4274;52.012;8.448;2022-10-30T07:25:26;13.10;99.90
8475;DHT22;4274;52.012;8.448;2022-10-30T07:27:53;13.30;99.90
8475;DHT22;4274;52.012;8.448;2022-10-30T07:30:21;13.40;99.90
8475;DHT22;4274;52.012;8.448;2022-10-30T07:32:56;13.60;99.90
8475;DHT22;4274;52.012;8.448;2022-10-30T07:35:22;13.70;99.90
8475;DHT22;4274;52.012;8.448;2022-10-30T07:37:47;13.80;99.90
8475;DHT22;4274;52.012;8.448;2022-10-30T07:40:13;13.90;99.90
8475;DHT22;4274;52.012;8.448;2022-10-30T07:42:38;14.10;99.90
8475;DHT22;4274;52.012;8.448;2022-10-30T07:45:04;14.40;99.90
8475;DHT22;4274;52.012;8.448;2022-10-30T07:47:30;14.60;99.90
8475;DHT22;4274;52.012;8.448;2022-10-30T07:49:55;14.80;99.90
8475;DHT22;4274;52.012;8.448;2022-10-30T07:52:21;15.20;99.90
8475;DHT22;4274;52.012;8.448;2022-10-30T07:54:47;15.40;99.90
8475;DHT22;4274;52.012;8.448;2022-10-30T07:57:12;15.60;99.90
8475;DHT22;4274;52.012;8.448;2022-10-30T07:59:38;15.80;99.90
8475;DHT22;4274;52.012;8.448;2022-10-30T08:02:03;16.00;99.90
8475;DHT22;4274;52.012;8.448;2022-10-30T08:04:29;16.10;99.90
8475;DHT22;4274;52.012;8.448;2022-10-30T08:06:54;16.30;99.90
8475;DHT22;4274;52.012;8.448;2022-10-30T08:09:20;16.40;99.90
8475;DHT22;4274;52.012;8.448;2022-10-30T08:11:45;16.60;99.90
8475;DHT22;4274;52.012;8.448;2022-10-30T08:14:11;16.80;99.90
8475;DHT22;4274;52.012;8.448;2022-10-30T08:16:36;17.00;99.90
8475;DHT22;4274;52.012;8.448;2022-10-30T08:19:02;17.10;99.90
8475;DHT22;4274;52.012;8.448;2022-10-30T08:21:28;17.20;99.90
8475;DHT22;4274;52.012;8.448;2022-10-30T08:23:53;17.20;99.90
8475;DHT22;4274;52.012;8.448;2022-10-30T08:26:19;17.30;99.90
8475;DHT22;4274;52.012;8.448;2022-10-30T08:28:44;17.30;99.90
8475;DHT22;4274;52.012;8.448;2022-10-30T08:31:10;17.40;99.90
8475;DHT22;4274;52.012;8.448;2022-10-30T08:33:35;17.40;99.90
8475;DHT22;4274;52.012;8.448;2022-10-30T08:36:01;17.50;99.90
8475;DHT22;4274;52.012;8.448;2022-10-30T08:38:27;17.60;99.90
8475;DHT22;4274;52.012;8.448;2022-10-30T08:40:53;17.70;99.90
8475;DHT22;4274;52.012;8.448;2022-10-30T08:43:19;17.90;99.90
8475;DHT22;4274;52.012;8.448;2022-10-30T08:45:45;18.40;99.90
8475;DHT22;4274;52.012;8.448;2022-10-30T08:48:13;18.60;99.90
8475;DHT22;4274;52.012;8.448;2022-10-30T08:50:39;18.70;99.90
8475;DHT22;4274;52.012;8.448;2022-10-30T08:53:06;18.70;99.90
8475;DHT22;4274;52.012;8.448;2022-10-30T08:55:33;18.70;99.90
8475;DHT22;4274;52.012;8.448;2022-10-30T08:57:59;18.60;99.90
8475;DHT22;4274;52.012;8.448;2022-10-30T09:00:25;18.60;99.90
8475;DHT22;4274;52.012;8.448;2022-10-30T09:02:51;18.60;99.90
8475;DHT22;4274;52.012;8.448;2022-10-30T09:05:17;18.60;99.90
8475;DHT22;4274;52.012;8.448;2022-10-30T09:07:43;18.70;99.90
8475;DHT22;4274;52.012;8.448;2022-10-30T09:10:09;18.70;99.90
8475;DHT22;4274;52.012;8.448;2022-10-30T09:12:34;18.90;99.90
8475;DHT22;4274;52.012;8.448;2022-10-30T09:15:00;19.00;99.90
8475;DHT22;4274;52.012;8.448;2022-10-30T09:17:26;19.20;99.90
8475;DHT22;4274;52.012;8.448;2022-10-30T09:19:51;19.20;99.90
8475;DHT22;4274;52.012;8.448;2022-10-30T09:22:17;19.30;99.90
8475;DHT22;4274;52.012;8.448;2022-10-30T09:24:42;19.40;99.90
8475;DHT22;4274;52.012;8.448;2022-10-30T09:27:08;19.50;99.90
8475;DHT22;4274;52.012;8.448;2022-10-30T09:29:34;19.60;99.90
8475;DHT22;4274;52.012;8.448;2022-10-30T09:32:00;19.70;99.90
8475;DHT22;4274;52.012;8.448;2022-10-30T09:34:26;19.90;99.90
8475;DHT22;4274;52.012;8.448;2022-10-30T09:36:53;20.00;99.90
8475;DHT22;4274;52.012;8.448;2022-10-30T09:39:18;20.20;99.90
8475;DHT22;4274;52.012;8.448;2022-10-30T09:50:15;20.60;99.90
8475;DHT22;4274;52.012;8.448;2022-10-30T10:01:16;20.50;99.90
8475;DHT22;4274;52.012;8.448;2022-10-30T10:06:43;20.60;99.90
8475;DHT22;4274;52.012;8.448;2022-10-30T10:09:16;20.70;99.90
8475;DHT22;4274;52.012;8.448;2022-10-30T10:11:55;20.90;99.90
8475;DHT22;4274;52.012;8.448;2022-10-30T10:14:28;20.90;99.90
8475;DHT22;4274;52.012;8.448;2022-10-30T10:16:55;21.00;99.90
8475;DHT22;4274;52.012;8.448;2022-10-30T10:19:29;21.10;99.90
8475;DHT22;4274;52.012;8.448;2022-10-30T10:22:05;21.30;99.90
8475;DHT22;4274;52.012;8.448;2022-10-30T10:24:32;21.40;99.90
8475;DHT22;4274;52.012;8.448;2022-10-30T10:30:07;21.80;99.90
8475;DHT22;4274;52.012;8.448;2022-10-30T10:39:20;22.40;99.90
8475;DHT22;4274;52.012;8.448;2022-10-30T10:42:18;23.10;99.90
8475;DHT22;4274;52.012;8.448;2022-10-30T10:44:53;23.70;99.90
8475;DHT22;4274;52.012;8.448;2022-10-30T10:47:38;24.10;99.90
8475;DHT22;4274;52.012;8.448;2022-10-30T10:50:23;24.50;99.90
8475;DHT22;4274;52.012;8.448;2022-10-30T10:53:45;25.10;99.90
8475;DHT22;4274;52.012;8.448;2022-10-30T10:55:53;25.80;99.90
8475;DHT22;4274;52.012;8.448;2022-10-30T10:58:33;26.50;99.90
8475;DHT22;4274;52.012;8.448;2022-10-30T11:01:05;27.10;99.90
8475;DHT22;4274;52.012;8.448;2022-10-30T11:03:56;27.50;99.90
8475;DHT22;4274;52.012;8.448;2022-10-30T11:06:26;27.90;99.90
8475;DHT22;4274;52.012;8.448;2022-10-30T11:09:09;28.20;99.90
8475;DHT22;4274;52.012;8.448;2022-10-30T11:11:36;28.10;99.90
8475;DHT22;4274;52.012;8.448;2022-10-30T11:14:17;28.10;99.90
8475;DHT22;4274;52.012;8.448;2022-10-30T11:19:08;28.00;99.90
8475;DHT22;4274;52.012;8.448;2022-10-30T11:21:38;28.00;99.90
8475;DHT22;4274;52.012;8.448;2022-10-30T11:24:27;28.10;99.90
8475;DHT22;4274;52.012;8.448;2022-10-30T11:26:55;28.00;99.90
8475;DHT22;4274;52.012;8.448;2022-10-30T11:29:27;28.10;99.90
8475;DHT22;4274;52.012;8.448;2022-10-30T11:32:02;28.10;99.90
8475;DHT22;4274;52.012;8.448;2022-10-30T11:34:32;28.20;99.90
8475;DHT22;4274;52.012;8.448;2022-10-30T11:36:58;28.40;99.90
8475;DHT22;4274;52.012;8.448;2022-10-30T11:39:31;28.50;99.90
8475;DHT22;4274;52.012;8.448;2022-10-30T11:42:12;28.40;99.90
8475;DHT22;4274;52.012;8.448;2022-10-30T11:44:49;28.60;99.90
8475;DHT22;4274;52.012;8.448;2022-10-30T11:47:18;28.80;99.90
8475;DHT22;4274;52.012;8.448;2022-10-30T11:49:57;29.00;99.90
8475;DHT22;4274;52.012;8.448;2022-10-30T11:52:24;29.40;99.90
8475;DHT22;4274;52.012;8.448;2022-10-30T11:54:59;29.50;98.00
8475;DHT22;4274;52.012;8.448;2022-10-30T11:57:37;29.00;98.30
8475;DHT22;4274;52.012;8.448;2022-10-30T12:00:13;29.00;98.50
8475;DHT22;4274;52.012;8.448;2022-10-30T12:02:41;29.10;98.60
8475;DHT22;4274;52.012;8.448;2022-10-30T12:08:19;29.50;99.60
8475;DHT22;4274;52.012;8.448;2022-10-30T12:13:19;30.00;97.90
8475;DHT22;4274;52.012;8.448;2022-10-30T12:15:47;30.00;98.20
8475;DHT22;4274;52.012;8.448;2022-10-30T12:18:24;30.10;98.20
8475;DHT22;4274;52.012;8.448;2022-10-30T12:20:53;29.80;96.90
8475;DHT22;4274;52.012;8.448;2022-10-30T12:23:21;29.60;97.20
8475;DHT22;4274;52.012;8.448;2022-10-30T12:25:51;29.30;96.90
8475;DHT22;4274;52.012;8.448;2022-10-30T12:28:26;28.80;97.40
8475;DHT22;4274;52.012;8.448;2022-10-30T12:31:55;28.50;97.60
8475;DHT22;4274;52.012;8.448;2022-10-30T12:34:05;28.30;97.40
8475;DHT22;4274;52.012;8.448;2022-10-30T12:36:40;28.10;98.40
8475;DHT22;4274;52.012;8.448;2022-10-30T12:39:23;28.00;97.90
8475;DHT22;4274;52.012;8.448;2022-10-30T12:42:07;27.90;98.00
8475;DHT22;4274;52.012;8.448;2022-10-30T12:44:40;27.80;97.90
8475;DHT22;4274;52.012;8.448;2022-10-30T12:47:26;27.70;98.50
8475;DHT22;4274;52.012;8.448;2022-10-30T12:50:00;27.80;98.10
8475;DHT22;4274;52.012;8.448;2022-10-30T12:52:55;27.60;98.20
8475;DHT22;4274;52.012;8.448;2022-10-30T12:55:33;27.10;98.30
8475;DHT22;4274;52.012;8.448;2022-10-30T13:01:00;25.80;99.50
8475;DHT22;4274;52.012;8.448;2022-10-30T13:03:52;25.10;99.90
8475;DHT22;4274;52.012;8.448;2022-10-30T13:06:22;24.60;99.90
8475;DHT22;4274;52.012;8.448;2022-10-30T13:11:40;24.20;99.90
8475;DHT22;4274;52.012;8.448;2022-10-30T13:14:18;24.20;99.90
8475;DHT22;4274;52.012;8.448;2022-10-30T13:16:44;24.20;99.90
8475;DHT22;4274;52.012;8.448;2022-10-30T13:19:11;24.00;99.90
8475;DHT22;4274;52.012;8.448;2022-10-30T13:25:09;23.70;99.90
8475;DHT22;4274;52.012;8.448;2022-10-30T13:30:15;23.40;99.90
8475;DHT22;4274;52.012;8.448;2022-10-30T13:44:17;22.70;99.90
8475;DHT22;4274;52.012;8.448;2022-10-30T13:55:16;22.20;99.90
8475;DHT22;4274;52.012;8.448;2022-10-30T13:57:26;22.10;99.90
8475;DHT22;4274;52.012;8.448;2022-10-30T14:00:03;21.90;99.90
8475;DHT22;4274;52.012;8.448;2022-10-30T14:05:43;21.60;99.90
8475;DHT22;4274;52.012;8.448;2022-10-30T14:10:53;21.30;99.90
8475;DHT22;4274;52.012;8.448;2022-10-30T14:13:25;21.20;99.90
8475;DHT22;4274;52.012;8.448;2022-10-30T14:15:59;21.10;99.90
8475;DHT22;4274;52.012;8.448;2022-10-30T14:18:41;21.00;99.90
8475;DHT22;4274;52.012;8.448;2022-10-30T14:31:59;20.70;99.90
8475;DHT22;4274;52.012;8.448;2022-10-30T14:37:11;20.50;99.90
8475;DHT22;4274;52.012;8.448;2022-10-30T14:39:40;20.50;99.90
8475;DHT22;4274;52.012;8.448;2022-10-30T14:42:42;20.30;99.90
8475;DHT22;4274;52.012;8.448;2022-10-30T14:58:39;19.80;99.90
8475;DHT22;4274;52.012;8.448;2022-10-30T15:06:58;19.40;99.90
8475;DHT22;4274;52.012;8.448;2022-10-30T15:09:47;19.20;99.90
8475;DHT22;4274;52.012;8.448;2022-10-30T15:12:20;19.20;99.90
8475;DHT22;4274;52.012;8.448;2022-10-30T15:14:53;19.10;99.90
8475;DHT22;4274;52.012;8.448;2022-10-30T15:22:40;18.80;99.90
8475;DHT22;4274;52.012;8.448;2022-10-30T15:25:15;18.70;99.90
8475;DHT22;4274;52.012;8.448;2022-10-30T15:27:45;18.60;99.90
8475;DHT22;4274;52.012;8.448;2022-10-30T15:30:16;18.50;99.90
8475;DHT22;4274;52.012;8.448;2022-10-30T15:32:41;18.50;99.90
8475;DHT22;4274;52.012;8.448;2022-10-30T15:35:27;18.40;99.90
8475;DHT22;4274;52.012;8.448;2022-10-30T15:38:04;18.20;99.90
8475;DHT22;4274;52.012;8.448;2022-10-30T15:40:30;18.20;99.90
8475;DHT22;4274;52.012;8.448;2022-10-30T15:42:58;18.10;99.90
8475;DHT22;4274;52.012;8.448;2022-10-30T15:45:36;18.00;99.90
8475;DHT22;4274;52.012;8.448;2022-10-30T15:48:20;17.80;99.90
8475;DHT22;4274;52.012;8.448;2022-10-30T15:50:56;17.80;99.90
8475;DHT22;4274;52.012;8.448;2022-10-30T15:53:48;17.60;99.90
8475;DHT22;4274;52.012;8.448;2022-10-30T15:59:03;17.40;99.90
8475;DHT22;4274;52.012;8.448;2022-10-30T16:01:34;17.30;99.90
8475;DHT22;4274;52.012;8.448;2022-10-30T16:04:03;17.20;99.90
8475;DHT22;4274;52.012;8.448;2022-10-30T16:06:30;17.10;99.90
8475;DHT22;4274;52.012;8.448;2022-10-30T16:08:56;17.00;99.90
8475;DHT22;4274;52.012;8.448;2022-10-30T16:11:23;17.00;99.90
8475;DHT22;4274;52.012;8.448;2022-10-30T16:13:50;16.80;99.90
8475;DHT22;4274;52.012;8.448;2022-10-30T16:16:23;16.70;99.90
8475;DHT22;4274;52.012;8.448;2022-10-30T16:18:50;16.60;99.90
8475;DHT22;4274;52.012;8.448;2022-10-30T16:21:20;16.60;99.90
8475;DHT22;4274;52.012;8.448;2022-10-30T16:23:50;16.50;99.90
8475;DHT22;4274;52.012;8.448;2022-10-30T16:26:29;16.40;99.90
8475;DHT22;4274;52.012;8.448;2022-10-30T16:29:16;16.40;99.90
8475;DHT22;4274;52.012;8.448;2022-10-30T16:31:43;16.30;99.90
8475;DHT22;4274;52.012;8.448;2022-10-30T16:34:23;16.30;99.90
8475;DHT22;4274;52.012;8.448;2022-10-30T16:36:50;16.20;99.90
8475;DHT22;4274;52.012;8.448;2022-10-30T16:39:16;16.20;99.90
8475;DHT22;4274;52.012;8.448;2022-10-30T16:41:43;16.20;99.90
8475;DHT22;4274;52.012;8.448;2022-10-30T16:46:49;16.10;99.90
8475;DHT22;4274;52.012;8.448;2022-10-30T16:49:22;16.10;99.90
8475;DHT22;4274;52.012;8.448;2022-10-30T16:52:00;16.00;99.90
8475;DHT22;4274;52.012;8.448;2022-10-30T16:54:38;16.00;99.90
8475;DHT22;4274;52.012;8.448;2022-10-30T16:57:13;15.90;99.90
8475;DHT22;4274;52.012;8.448;2022-10-30T17:02:16;15.80;99.90
8475;DHT22;4274;52.012;8.448;2022-10-30T17:04:45;15.70;99.90
8475;DHT22;4274;52.012;8.448;2022-10-30T17:07:19;15.70;99.90
8475;DHT22;4274;52.012;8.448;2022-10-30T17:09:50;15.70;99.90
8475;DHT22;4274;52.012;8.448;2022-10-30T17:12:20;15.70;99.90
8475;DHT22;4274;52.012;8.448;2022-10-30T17:14:49;15.60;99.90
8475;DHT22;4274;52.012;8.448;2022-10-30T17:17:27;15.50;99.90
8475;DHT22;4274;52.012;8.448;2022-10-30T17:20:05;15.40;99.90
8475;DHT22;4274;52.012;8.448;2022-10-30T17:22:31;15.40;99.90
8475;DHT22;4274;52.012;8.448;2022-10-30T17:24:58;15.30;99.90
8475;DHT22;4274;52.012;8.448;2022-10-30T17:30:00;15.30;99.90
8475;DHT22;4274;52.012;8.448;2022-10-30T17:32:46;15.30;99.90
8475;DHT22;4274;52.012;8.448;2022-10-30T17:35:17;15.20;99.90
8475;DHT22;4274;52.012;8.448;2022-10-30T17:37:44;15.20;99.90
8475;DHT22;4274;52.012;8.448;2022-10-30T17:40:13;15.20;99.90
8475;DHT22;4274;52.012;8.448;2022-10-30T17:42:39;15.10;99.90
8475;DHT22;4274;52.012;8.448;2022-10-30T17:45:06;15.10;99.90
8475;DHT22;4274;52.012;8.448;2022-10-30T17:47:35;15.00;99.90
8475;DHT22;4274;52.012;8.448;2022-10-30T17:50:01;15.00;99.90
8475;DHT22;4274;52.012;8.448;2022-10-30T17:52:30;15.00;99.90
8475;DHT22;4274;52.012;8.448;2022-10-30T17:54:55;14.90;99.90
8475;DHT22;4274;52.012;8.448;2022-10-30T17:57:21;14.90;99.90
8475;DHT22;4274;52.012;8.448;2022-10-30T17:59:49;14.90;99.90
8475;DHT22;4274;52.012;8.448;2022-10-30T18:02:17;14.90;99.90
8475;DHT22;4274;52.012;8.448;2022-10-30T18:04:43;14.90;99.90
8475;DHT22;4274;52.012;8.448;2022-10-30T18:07:10;14.90;99.90
8475;DHT22;4274;52.012;8.448;2022-10-30T18:09:37;14.90;99.90
8475;DHT22;4274;52.012;8.448;2022-10-30T18:12:03;14.90;99.90
8475;DHT22;4274;52.012;8.448;2022-10-30T18:14:29;14.90;99.90
8475;DHT22;4274;52.012;8.448;2022-10-30T18:16:55;14.80;99.90
8475;DHT22;4274;52.012;8.448;2022-10-30T18:19:21;14.80;99.90
8475;DHT22;4274;52.012;8.448;2022-10-30T18:21:46;14.80;99.90
8475;DHT22;4274;52.012;8.448;2022-10-30T18:24:16;14.80;99.90
8475;DHT22;4274;52.012;8.448;2022-10-30T18:26:42;14.80;99.90
8475;DHT22;4274;52.012;8.448;2022-10-30T18:29:08;14.70;99.90
8475;DHT22;4274;52.012;8.448;2022-10-30T18:31:34;14.70;99.90
8475;DHT22;4274;52.012;8.448;2022-10-30T18:34:00;14.60;99.90
8475;DHT22;4274;52.012;8.448;2022-10-30T18:36:25;14.60;99.90
8475;DHT22;4274;52.012;8.448;2022-10-30T18:38:51;14.70;99.90
8475;DHT22;4274;52.012;8.448;2022-10-30T18:41:21;14.70;99.90
8475;DHT22;4274;52.012;8.448;2022-10-30T18:43:47;14.60;99.90
8475;DHT22;4274;52.012;8.448;2022-10-30T18:46:14;14.60;99.90
8475;DHT22;4274;52.012;8.448;2022-10-30T18:48:40;14.60;99.90